• Join FlightAware (Why Join?)
  • Login
  • US Flag 
 
12:27PM EST


 

Airport Tracker/Info


-or-


 

Live Flight TrackerFlight Track Log ✈ N4978T ✈ 25-Jul-2013 ✈ KCMA - KOXR

Flight Track Log - Related Links

Times and Time Zones

All times are in EDT time to prevent confusion due to time zone crossing. See the N4978T flight status page for this flight to view local times or setup timezone preferences in your user account.

Time Position Orientation Groundspeed Altitude Reporting Facility
EDT Latitude Longitude Course Direction KTS MPH feet Rate Location/Type
05:34PM 34.2158 -119.1069 289° West 71 82 900  Level Los Angeles Center
05:35PM 34.2253 -119.1403 289° West 91 105 1,800 660 Climbing Los Angeles Center
05:36PM 34.2169 -119.1508 226° Southwest 97 112 2,500 540 Climbing Los Angeles Center
05:37PM 34.1994 -119.1303 136° Southeast 89 102 3,000 420 Climbing Los Angeles Center
05:39PM 34.1753 -119.0992 133° Southeast 108 124 3,500 480 Climbing Los Angeles Center
05:39PM 34.1681 -119.0675 105° East 117 135 4,000 360 Climbing Los Angeles Center
05:40PM 34.1569 -119.0269 108° East 130 150 4,300 60 Climbing Los Angeles Center
05:42PM 34.1458 -118.9683 103° East 174 200 4,200 -60 Descending Los Angeles Center
05:43PM 34.1369 -118.9089 100° East 169 194 4,200  Level Los Angeles Center
05:44PM 34.1356 -118.8547 92° East 167 192 4,200  Level Los Angeles Center
05:45PM 34.1336 -118.8083 93° East 165 190 4,200  Level Los Angeles Center
05:46PM 34.1433 -118.7450 79° East 164 189 4,300  Climbing Los Angeles Center
05:47PM 34.1772 -118.7600 340° North 151 174 4,200 -120 Descending Los Angeles Center
05:47PM 34.1914 -118.7767 316° Northwest 133 153 4,200  Level Los Angeles Center
05:48PM 34.1958 -118.7925 289° West 122 140 4,200 -120 Level Los Angeles Center
05:49PM 34.1972 -118.8464 272° West 132 152 4,100 -60 Descending Los Angeles Center
05:50PM 34.1967 -118.8869 269° West 129 148 4,100  Level Los Angeles Center
05:51PM 34.1975 -118.9267 271° West 123 142 4,100 -60 Level Los Angeles Center
05:52PM 34.1975 -118.9647 270° West 119 137 4,000 -420 Descending Los Angeles Center
05:53PM 34.1975 -118.9967 270° West 109 125 3,300 -480 Descending Los Angeles Center
05:54PM 34.1983 -119.0264 272° West 98 113 3,000 -300 Descending Los Angeles Center